sensor_id;sensor_type;location;lat;lon;timestamp;temperature;humidity
7296;DHT22;40758;54.038;11.684;2022-08-02T00:01:28;14.20;99.90
7296;DHT22;40758;54.038;11.684;2022-08-02T00:03:59;14.20;99.90
7296;DHT22;40758;54.038;11.684;2022-08-02T00:06:32;14.10;99.90
7296;DHT22;40758;54.038;11.684;2022-08-02T00:09:03;14.10;99.90
7296;DHT22;40758;54.038;11.684;2022-08-02T00:11:34;14.00;99.90
7296;DHT22;40758;54.038;11.684;2022-08-02T00:14:10;14.00;99.90
7296;DHT22;40758;54.038;11.684;2022-08-02T00:16:41;14.00;99.90
7296;DHT22;40758;54.038;11.684;2022-08-02T00:19:10;13.90;99.90
7296;DHT22;40758;54.038;11.684;2022-08-02T00:21:42;13.80;99.90
7296;DHT22;40758;54.038;11.684;2022-08-02T00:24:13;13.80;99.90
7296;DHT22;40758;54.038;11.684;2022-08-02T00:26:57;13.70;99.90
7296;DHT22;40758;54.038;11.684;2022-08-02T00:29:31;13.70;99.90
7296;DHT22;40758;54.038;11.684;2022-08-02T00:32:08;13.60;99.90
7296;DHT22;40758;54.038;11.684;2022-08-02T00:34:39;13.60;99.90
7296;DHT22;40758;54.038;11.684;2022-08-02T00:37:08;13.70;99.90
7296;DHT22;40758;54.038;11.684;2022-08-02T00:39:37;13.70;99.90
7296;DHT22;40758;54.038;11.684;2022-08-02T00:42:07;13.90;99.90
7296;DHT22;40758;54.038;11.684;2022-08-02T00:44:39;13.90;99.90
7296;DHT22;40758;54.038;11.684;2022-08-02T00:47:08;14.00;99.90
7296;DHT22;40758;54.038;11.684;2022-08-02T00:49:45;14.10;99.90
7296;DHT22;40758;54.038;11.684;2022-08-02T00:52:18;14.10;99.90
7296;DHT22;40758;54.038;11.684;2022-08-02T00:54:54;14.00;99.90
7296;DHT22;40758;54.038;11.684;2022-08-02T00:57:23;13.90;99.90
7296;DHT22;40758;54.038;11.684;2022-08-02T00:59:54;13.60;99.90
7296;DHT22;40758;54.038;11.684;2022-08-02T01:02:23;13.40;99.90
7296;DHT22;40758;54.038;11.684;2022-08-02T01:04:52;13.40;99.90
7296;DHT22;40758;54.038;11.684;2022-08-02T01:07:21;13.30;99.90
7296;DHT22;40758;54.038;11.684;2022-08-02T01:09:50;13.20;99.90
7296;DHT22;40758;54.038;11.684;2022-08-02T01:12:19;13.00;99.90
7296;DHT22;40758;54.038;11.684;2022-08-02T01:14:50;12.70;99.90
7296;DHT22;40758;54.038;11.684;2022-08-02T01:17:30;12.50;99.90
7296;DHT22;40758;54.038;11.684;2022-08-02T01:20:13;12.30;99.90
7296;DHT22;40758;54.038;11.684;2022-08-02T01:23:08;12.10;99.90
7296;DHT22;40758;54.038;11.684;2022-08-02T01:26:06;12.10;99.90
7296;DHT22;40758;54.038;11.684;2022-08-02T01:28:51;12.00;99.90
7296;DHT22;40758;54.038;11.684;2022-08-02T01:31:31;12.10;99.90
7296;DHT22;40758;54.038;11.684;2022-08-02T01:34:06;12.10;99.90
7296;DHT22;40758;54.038;11.684;2022-08-02T01:36:44;12.00;99.90
7296;DHT22;40758;54.038;11.684;2022-08-02T01:39:22;11.90;99.90
7296;DHT22;40758;54.038;11.684;2022-08-02T01:41:59;11.90;99.90
7296;DHT22;40758;54.038;11.684;2022-08-02T01:44:35;11.80;99.90
7296;DHT22;40758;54.038;11.684;2022-08-02T01:47:16;11.70;99.90
7296;DHT22;40758;54.038;11.684;2022-08-02T01:49:51;11.70;99.90
7296;DHT22;40758;54.038;11.684;2022-08-02T01:52:27;11.60;99.90
7296;DHT22;40758;54.038;11.684;2022-08-02T01:55:02;11.60;99.90
7296;DHT22;40758;54.038;11.684;2022-08-02T01:57:48;11.60;99.90
7296;DHT22;40758;54.038;11.684;2022-08-02T02:00:28;11.50;99.90
7296;DHT22;40758;54.038;11.684;2022-08-02T02:03:01;11.30;99.90
7296;DHT22;40758;54.038;11.684;2022-08-02T02:05:35;11.20;99.90
7296;DHT22;40758;54.038;11.684;2022-08-02T02:08:07;11.00;99.90
7296;DHT22;40758;54.038;11.684;2022-08-02T02:10:39;10.90;99.90
7296;DHT22;40758;54.038;11.684;2022-08-02T02:13:12;10.80;99.90
7296;DHT22;40758;54.038;11.684;2022-08-02T02:15:47;10.60;99.90
7296;DHT22;40758;54.038;11.684;2022-08-02T02:18:23;10.60;99.90
7296;DHT22;40758;54.038;11.684;2022-08-02T02:20:55;10.50;99.90
7296;DHT22;40758;54.038;11.684;2022-08-02T02:23:26;10.40;99.90
7296;DHT22;40758;54.038;11.684;2022-08-02T02:26:02;10.30;99.90
7296;DHT22;40758;54.038;11.684;2022-08-02T02:28:40;10.30;99.90
7296;DHT22;40758;54.038;11.684;2022-08-02T02:31:18;10.30;99.90
7296;DHT22;40758;54.038;11.684;2022-08-02T02:33:51;10.20;99.90
7296;DHT22;40758;54.038;11.684;2022-08-02T02:36:27;10.20;99.90
7296;DHT22;40758;54.038;11.684;2022-08-02T02:39:02;10.20;99.90
7296;DHT22;40758;54.038;11.684;2022-08-02T02:41:40;10.20;99.90
7296;DHT22;40758;54.038;11.684;2022-08-02T02:44:15;10.10;99.90
7296;DHT22;40758;54.038;11.684;2022-08-02T02:46:50;10.10;99.90
7296;DHT22;40758;54.038;11.684;2022-08-02T02:49:23;10.00;99.90
7296;DHT22;40758;54.038;11.684;2022-08-02T02:51:54;10.00;99.90
7296;DHT22;40758;54.038;11.684;2022-08-02T02:54:26;9.90;99.90
7296;DHT22;40758;54.038;11.684;2022-08-02T02:57:03;9.80;99.90
7296;DHT22;40758;54.038;11.684;2022-08-02T02:59:34;9.80;99.90
7296;DHT22;40758;54.038;11.684;2022-08-02T03:02:18;9.90;99.90
7296;DHT22;40758;54.038;11.684;2022-08-02T03:04:48;9.80;99.90
7296;DHT22;40758;54.038;11.684;2022-08-02T03:07:26;9.80;99.90
7296;DHT22;40758;54.038;11.684;2022-08-02T03:09:56;9.70;99.90
7296;DHT22;40758;54.038;11.684;2022-08-02T03:12:27;9.80;99.90
7296;DHT22;40758;54.038;11.684;2022-08-02T03:15:01;9.90;99.90
7296;DHT22;40758;54.038;11.684;2022-08-02T03:17:39;10.00;99.90
7296;DHT22;40758;54.038;11.684;2022-08-02T03:20:13;10.00;99.90
7296;DHT22;40758;54.038;11.684;2022-08-02T03:22:44;10.10;99.90
7296;DHT22;40758;54.038;11.684;2022-08-02T03:25:15;10.00;99.90
7296;DHT22;40758;54.038;11.684;2022-08-02T03:27:46;10.00;99.90
7296;DHT22;40758;54.038;11.684;2022-08-02T03:30:16;9.90;99.90
7296;DHT22;40758;54.038;11.684;2022-08-02T03:32:53;9.80;99.90
7296;DHT22;40758;54.038;11.684;2022-08-02T03:35:23;9.80;99.90
7296;DHT22;40758;54.038;11.684;2022-08-02T03:37:58;9.70;99.90
7296;DHT22;40758;54.038;11.684;2022-08-02T03:40:29;9.70;99.90
7296;DHT22;40758;54.038;11.684;2022-08-02T03:43:00;9.80;99.90
7296;DHT22;40758;54.038;11.684;2022-08-02T03:45:32;9.80;99.90
7296;DHT22;40758;54.038;11.684;2022-08-02T03:48:05;9.90;99.90
7296;DHT22;40758;54.038;11.684;2022-08-02T03:50:57;10.10;99.90
7296;DHT22;40758;54.038;11.684;2022-08-02T03:53:31;10.20;99.90
7296;DHT22;40758;54.038;11.684;2022-08-02T03:56:00;10.20;99.90
7296;DHT22;40758;54.038;11.684;2022-08-02T03:58:29;10.20;99.90
7296;DHT22;40758;54.038;11.684;2022-08-02T04:01:03;10.30;99.90
7296;DHT22;40758;54.038;11.684;2022-08-02T04:03:38;10.50;99.90
7296;DHT22;40758;54.038;11.684;2022-08-02T04:06:09;10.60;99.90
7296;DHT22;40758;54.038;11.684;2022-08-02T04:08:41;10.70;99.90
7296;DHT22;40758;54.038;11.684;2022-08-02T04:11:10;10.90;99.90
7296;DHT22;40758;54.038;11.684;2022-08-02T04:13:59;11.00;99.90
7296;DHT22;40758;54.038;11.684;2022-08-02T04:16:37;11.10;99.90
7296;DHT22;40758;54.038;11.684;2022-08-02T04:19:18;11.20;99.90
7296;DHT22;40758;54.038;11.684;2022-08-02T04:21:54;11.40;99.90
7296;DHT22;40758;54.038;11.684;2022-08-02T04:24:29;11.50;99.90
7296;DHT22;40758;54.038;11.684;2022-08-02T04:27:16;11.60;99.90
7296;DHT22;40758;54.038;11.684;2022-08-02T04:30:15;11.80;99.90
7296;DHT22;40758;54.038;11.684;2022-08-02T04:32:46;11.90;99.90
7296;DHT22;40758;54.038;11.684;2022-08-02T04:35:19;12.00;99.90
7296;DHT22;40758;54.038;11.684;2022-08-02T04:37:49;12.20;99.90
7296;DHT22;40758;54.038;11.684;2022-08-02T04:40:37;12.40;99.90
7296;DHT22;40758;54.038;11.684;2022-08-02T04:43:07;12.50;99.90
7296;DHT22;40758;54.038;11.684;2022-08-02T04:45:36;12.70;99.90
7296;DHT22;40758;54.038;11.684;2022-08-02T04:48:07;12.90;99.90
7296;DHT22;40758;54.038;11.684;2022-08-02T04:50:37;13.00;99.90
7296;DHT22;40758;54.038;11.684;2022-08-02T04:53:06;13.20;99.90
7296;DHT22;40758;54.038;11.684;2022-08-02T04:55:35;13.40;99.90
7296;DHT22;40758;54.038;11.684;2022-08-02T04:58:04;13.60;99.90
7296;DHT22;40758;54.038;11.684;2022-08-02T05:00:54;13.80;99.90
7296;DHT22;40758;54.038;11.684;2022-08-02T05:03:23;14.10;99.90
7296;DHT22;40758;54.038;11.684;2022-08-02T05:05:54;14.20;99.90
7296;DHT22;40758;54.038;11.684;2022-08-02T05:08:23;14.30;99.90
7296;DHT22;40758;54.038;11.684;2022-08-02T05:10:52;14.50;99.90
7296;DHT22;40758;54.038;11.684;2022-08-02T05:13:22;14.60;99.90
7296;DHT22;40758;54.038;11.684;2022-08-02T05:15:52;14.70;99.90
7296;DHT22;40758;54.038;11.684;2022-08-02T05:18:20;14.80;99.90
7296;DHT22;40758;54.038;11.684;2022-08-02T05:20:50;14.90;99.90
7296;DHT22;40758;54.038;11.684;2022-08-02T05:23:25;14.90;99.90
7296;DHT22;40758;54.038;11.684;2022-08-02T05:25:54;15.00;99.90
7296;DHT22;40758;54.038;11.684;2022-08-02T05:28:24;15.10;99.90
7296;DHT22;40758;54.038;11.684;2022-08-02T05:30:53;15.30;99.90
7296;DHT22;40758;54.038;11.684;2022-08-02T05:33:22;15.50;99.90
7296;DHT22;40758;54.038;11.684;2022-08-02T05:35:51;15.70;99.90
7296;DHT22;40758;54.038;11.684;2022-08-02T05:38:21;16.00;99.90
7296;DHT22;40758;54.038;11.684;2022-08-02T05:40:53;16.20;99.90
7296;DHT22;40758;54.038;11.684;2022-08-02T05:43:22;16.40;99.90
7296;DHT22;40758;54.038;11.684;2022-08-02T05:45:51;16.80;99.90
7296;DHT22;40758;54.038;11.684;2022-08-02T05:48:25;17.20;99.90
7296;DHT22;40758;54.038;11.684;2022-08-02T05:51:02;18.00;99.90
7296;DHT22;40758;54.038;11.684;2022-08-02T05:53:37;19.30;99.90
7296;DHT22;40758;54.038;11.684;2022-08-02T05:56:29;20.40;99.90
7296;DHT22;40758;54.038;11.684;2022-08-02T05:59:03;21.30;99.90
7296;DHT22;40758;54.038;11.684;2022-08-02T06:01:39;21.80;99.90
7296;DHT22;40758;54.038;11.684;2022-08-02T06:04:17;22.30;99.90
7296;DHT22;40758;54.038;11.684;2022-08-02T06:06:54;23.10;99.90
7296;DHT22;40758;54.038;11.684;2022-08-02T06:09:34;24.20;99.90
7296;DHT22;40758;54.038;11.684;2022-08-02T06:12:11;24.90;99.90
7296;DHT22;40758;54.038;11.684;2022-08-02T06:14:47;25.30;99.90
7296;DHT22;40758;54.038;11.684;2022-08-02T06:17:21;25.50;99.90
7296;DHT22;40758;54.038;11.684;2022-08-02T06:19:53;25.80;99.90
7296;DHT22;40758;54.038;11.684;2022-08-02T06:22:26;25.10;99.90
7296;DHT22;40758;54.038;11.684;2022-08-02T06:25:03;24.70;99.90
7296;DHT22;40758;54.038;11.684;2022-08-02T06:27:58;24.60;99.90
7296;DHT22;40758;54.038;11.684;2022-08-02T06:30:39;24.30;99.90
7296;DHT22;40758;54.038;11.684;2022-08-02T06:33:12;23.70;99.90
7296;DHT22;40758;54.038;11.684;2022-08-02T06:35:54;24.00;99.90
7296;DHT22;40758;54.038;11.684;2022-08-02T06:38:32;24.10;99.90
7296;DHT22;40758;54.038;11.684;2022-08-02T06:41:16;24.00;99.90
7296;DHT22;40758;54.038;11.684;2022-08-02T06:43:53;24.40;99.90
7296;DHT22;40758;54.038;11.684;2022-08-02T06:46:23;24.80;99.90
7296;DHT22;40758;54.038;11.684;2022-08-02T06:49:12;25.40;99.90
7296;DHT22;40758;54.038;11.684;2022-08-02T06:51:42;26.30;99.90
7296;DHT22;40758;54.038;11.684;2022-08-02T06:54:11;26.80;99.90
7296;DHT22;40758;54.038;11.684;2022-08-02T06:56:40;27.20;99.90
7296;DHT22;40758;54.038;11.684;2022-08-02T06:59:10;27.60;99.90
7296;DHT22;40758;54.038;11.684;2022-08-02T07:01:40;27.90;99.90
7296;DHT22;40758;54.038;11.684;2022-08-02T07:04:11;28.10;99.90
7296;DHT22;40758;54.038;11.684;2022-08-02T07:06:46;27.30;99.90
7296;DHT22;40758;54.038;11.684;2022-08-02T07:09:19;26.20;99.90
7296;DHT22;40758;54.038;11.684;2022-08-02T07:11:48;26.40;99.90
7296;DHT22;40758;54.038;11.684;2022-08-02T07:14:20;26.30;99.90
7296;DHT22;40758;54.038;11.684;2022-08-02T07:16:54;25.90;99.90
7296;DHT22;40758;54.038;11.684;2022-08-02T07:19:24;25.10;99.90
7296;DHT22;40758;54.038;11.684;2022-08-02T07:22:04;24.40;99.90
7296;DHT22;40758;54.038;11.684;2022-08-02T07:24:39;25.80;99.90
7296;DHT22;40758;54.038;11.684;2022-08-02T07:27:08;26.00;99.90
7296;DHT22;40758;54.038;11.684;2022-08-02T07:29:41;27.20;99.90
7296;DHT22;40758;54.038;11.684;2022-08-02T07:32:13;26.90;99.90
7296;DHT22;40758;54.038;11.684;2022-08-02T07:34:43;25.80;99.90
7296;DHT22;40758;54.038;11.684;2022-08-02T07:37:19;26.30;99.90
7296;DHT22;40758;54.038;11.684;2022-08-02T07:40:11;26.10;99.90
7296;DHT22;40758;54.038;11.684;2022-08-02T07:42:47;25.80;99.90
7296;DHT22;40758;54.038;11.684;2022-08-02T07:45:27;24.90;99.90
7296;DHT22;40758;54.038;11.684;2022-08-02T07:48:05;25.00;99.90
7296;DHT22;40758;54.038;11.684;2022-08-02T07:50:34;25.40;99.90
7296;DHT22;40758;54.038;11.684;2022-08-02T07:53:06;26.00;99.90
7296;DHT22;40758;54.038;11.684;2022-08-02T07:55:36;26.50;99.90
7296;DHT22;40758;54.038;11.684;2022-08-02T07:58:07;26.50;99.90
7296;DHT22;40758;54.038;11.684;2022-08-02T08:00:41;26.70;99.90
7296;DHT22;40758;54.038;11.684;2022-08-02T08:03:11;27.10;99.90
7296;DHT22;40758;54.038;11.684;2022-08-02T08:05:40;27.80;99.30
7296;DHT22;40758;54.038;11.684;2022-08-02T08:08:09;28.00;95.10
7296;DHT22;40758;54.038;11.684;2022-08-02T08:10:44;28.10;94.80
7296;DHT22;40758;54.038;11.684;2022-08-02T08:13:13;27.90;93.60
7296;DHT22;40758;54.038;11.684;2022-08-02T08:15:44;27.80;93.10
7296;DHT22;40758;54.038;11.684;2022-08-02T08:18:19;27.40;92.80
7296;DHT22;40758;54.038;11.684;2022-08-02T08:20:49;27.40;96.60
7296;DHT22;40758;54.038;11.684;2022-08-02T08:23:19;28.20;92.70
7296;DHT22;40758;54.038;11.684;2022-08-02T08:25:48;27.60;90.80
7296;DHT22;40758;54.038;11.684;2022-08-02T08:28:16;27.30;95.00
7296;DHT22;40758;54.038;11.684;2022-08-02T08:30:47;28.30;90.70
7296;DHT22;40758;54.038;11.684;2022-08-02T08:33:16;28.30;90.40
7296;DHT22;40758;54.038;11.684;2022-08-02T08:35:45;28.50;89.80
7296;DHT22;40758;54.038;11.684;2022-08-02T08:38:15;28.60;88.40
7296;DHT22;40758;54.038;11.684;2022-08-02T08:40:45;28.60;84.90
7296;DHT22;40758;54.038;11.684;2022-08-02T08:43:17;28.70;85.70
7296;DHT22;40758;54.038;11.684;2022-08-02T08:45:48;28.80;81.50
7296;DHT22;40758;54.038;11.684;2022-08-02T08:48:23;28.60;81.20
7296;DHT22;40758;54.038;11.684;2022-08-02T08:51:04;29.40;82.40
7296;DHT22;40758;54.038;11.684;2022-08-02T08:53:42;30.30;74.80
7296;DHT22;40758;54.038;11.684;2022-08-02T08:56:14;29.90;69.00
7296;DHT22;40758;54.038;11.684;2022-08-02T08:58:44;29.10;67.80
7296;DHT22;40758;54.038;11.684;2022-08-02T09:01:16;27.90;70.60
7296;DHT22;40758;54.038;11.684;2022-08-02T09:03:49;26.50;74.80
7296;DHT22;40758;54.038;11.684;2022-08-02T09:06:18;26.40;75.30
7296;DHT22;40758;54.038;11.684;2022-08-02T09:08:48;27.00;76.00
7296;DHT22;40758;54.038;11.684;2022-08-02T09:11:18;27.60;76.50
7296;DHT22;40758;54.038;11.684;2022-08-02T09:13:52;28.10;74.20
7296;DHT22;40758;54.038;11.684;2022-08-02T09:16:32;28.50;71.10
7296;DHT22;40758;54.038;11.684;2022-08-02T09:19:16;28.70;69.30
7296;DHT22;40758;54.038;11.684;2022-08-02T09:21:47;28.40;73.40
7296;DHT22;40758;54.038;11.684;2022-08-02T09:24:20;29.00;71.00
7296;DHT22;40758;54.038;11.684;2022-08-02T09:26:51;29.20;63.80
7296;DHT22;40758;54.038;11.684;2022-08-02T09:29:22;29.30;62.90
7296;DHT22;40758;54.038;11.684;2022-08-02T09:32:01;29.30;55.90
7296;DHT22;40758;54.038;11.684;2022-08-02T09:34:46;29.30;59.30
7296;DHT22;40758;54.038;11.684;2022-08-02T09:37:24;30.10;60.70
7296;DHT22;40758;54.038;11.684;2022-08-02T09:39:55;30.80;56.60
7296;DHT22;40758;54.038;11.684;2022-08-02T09:42:26;30.70;55.30
7296;DHT22;40758;54.038;11.684;2022-08-02T09:44:58;30.40;53.80
7296;DHT22;40758;54.038;11.684;2022-08-02T09:47:30;30.70;56.70
7296;DHT22;40758;54.038;11.684;2022-08-02T09:50:04;30.90;54.60
7296;DHT22;40758;54.038;11.684;2022-08-02T09:52:42;30.60;52.90
7296;DHT22;40758;54.038;11.684;2022-08-02T09:55:11;29.80;52.60
7296;DHT22;40758;54.038;11.684;2022-08-02T09:57:41;29.60;57.30
7296;DHT22;40758;54.038;11.684;2022-08-02T10:00:18;29.20;56.00
7296;DHT22;40758;54.038;11.684;2022-08-02T10:03:10;28.90;55.70
7296;DHT22;40758;54.038;11.684;2022-08-02T10:05:49;28.50;55.90
7296;DHT22;40758;54.038;11.684;2022-08-02T10:08:27;28.10;55.00
7296;DHT22;40758;54.038;11.684;2022-08-02T10:11:00;28.60;58.90
7296;DHT22;40758;54.038;11.684;2022-08-02T10:13:31;29.10;57.00
7296;DHT22;40758;54.038;11.684;2022-08-02T10:16:03;29.30;51.50
7296;DHT22;40758;54.038;11.684;2022-08-02T10:18:35;29.30;52.10
7296;DHT22;40758;54.038;11.684;2022-08-02T10:21:14;28.80;51.80
7296;DHT22;40758;54.038;11.684;2022-08-02T10:23:53;28.40;53.40
7296;DHT22;40758;54.038;11.684;2022-08-02T10:26:25;28.40;54.90
7296;DHT22;40758;54.038;11.684;2022-08-02T10:28:54;28.70;52.30
7296;DHT22;40758;54.038;11.684;2022-08-02T10:31:29;28.30;51.50
7296;DHT22;40758;54.038;11.684;2022-08-02T10:34:09;28.00;50.00
7296;DHT22;40758;54.038;11.684;2022-08-02T10:36:40;27.90;51.30
7296;DHT22;40758;54.038;11.684;2022-08-02T10:39:11;27.90;52.60
7296;DHT22;40758;54.038;11.684;2022-08-02T10:41:43;28.30;49.80
7296;DHT22;40758;54.038;11.684;2022-08-02T10:44:21;28.20;48.30
7296;DHT22;40758;54.038;11.684;2022-08-02T10:46:52;27.60;46.90
7296;DHT22;40758;54.038;11.684;2022-08-02T10:49:56;27.80;50.70
7296;DHT22;40758;54.038;11.684;2022-08-02T10:52:28;27.50;46.80
7296;DHT22;40758;54.038;11.684;2022-08-02T10:54:59;27.50;43.40
7296;DHT22;40758;54.038;11.684;2022-08-02T10:57:40;27.50;42.20
7296;DHT22;40758;54.038;11.684;2022-08-02T11:00:26;27.20;45.50
7296;DHT22;40758;54.038;11.684;2022-08-02T11:02:56;28.00;45.90
7296;DHT22;40758;54.038;11.684;2022-08-02T11:05:29;28.00;40.90
7296;DHT22;40758;54.038;11.684;2022-08-02T11:08:18;27.70;45.00
7296;DHT22;40758;54.038;11.684;2022-08-02T11:10:48;27.80;42.00
7296;DHT22;40758;54.038;11.684;2022-08-02T11:13:18;27.40;40.70
7296;DHT22;40758;54.038;11.684;2022-08-02T11:15:49;27.10;42.30
7296;DHT22;40758;54.038;11.684;2022-08-02T11:21:44;27.30;45.50
7296;DHT22;40758;54.038;11.684;2022-08-02T11:24:29;27.80;45.80
7296;DHT22;40758;54.038;11.684;2022-08-02T11:27:00;27.70;46.80
7296;DHT22;40758;54.038;11.684;2022-08-02T11:29:33;27.50;43.40
7296;DHT22;40758;54.038;11.684;2022-08-02T11:32:06;27.30;46.80
7296;DHT22;40758;54.038;11.684;2022-08-02T11:34:38;27.40;42.60
7296;DHT22;40758;54.038;11.684;2022-08-02T11:37:09;27.60;44.70
7296;DHT22;40758;54.038;11.684;2022-08-02T11:39:39;27.30;45.60
7296;DHT22;40758;54.038;11.684;2022-08-02T11:42:08;27.00;42.20
7296;DHT22;40758;54.038;11.684;2022-08-02T11:44:41;26.60;44.60
7296;DHT22;40758;54.038;11.684;2022-08-02T11:47:12;26.50;43.50
7296;DHT22;40758;54.038;11.684;2022-08-02T11:49:42;26.80;44.20
7296;DHT22;40758;54.038;11.684;2022-08-02T11:52:13;27.40;43.70
7296;DHT22;40758;54.038;11.684;2022-08-02T11:54:42;27.90;45.50
7296;DHT22;40758;54.038;11.684;2022-08-02T11:57:14;28.60;44.70
7296;DHT22;40758;54.038;11.684;2022-08-02T11:59:52;28.40;43.90
7296;DHT22;40758;54.038;11.684;2022-08-02T12:02:25;28.00;43.70
7296;DHT22;40758;54.038;11.684;2022-08-02T12:04:58;27.70;43.60
7296;DHT22;40758;54.038;11.684;2022-08-02T12:07:35;27.70;48.30
7296;DHT22;40758;54.038;11.684;2022-08-02T12:10:14;27.70;44.30
7296;DHT22;40758;54.038;11.684;2022-08-02T12:12:49;27.60;43.20
7296;DHT22;40758;54.038;11.684;2022-08-02T12:15:31;27.80;43.80
7296;DHT22;40758;54.038;11.684;2022-08-02T12:18:02;28.10;42.00
7296;DHT22;40758;54.038;11.684;2022-08-02T12:20:53;28.20;45.80
7296;DHT22;40758;54.038;11.684;2022-08-02T12:23:25;28.10;39.70
7296;DHT22;40758;54.038;11.684;2022-08-02T12:26:02;28.00;44.00
7296;DHT22;40758;54.038;11.684;2022-08-02T12:28:34;27.90;41.20
7296;DHT22;40758;54.038;11.684;2022-08-02T12:31:06;27.80;39.70
7296;DHT22;40758;54.038;11.684;2022-08-02T12:33:45;27.90;41.30
7296;DHT22;40758;54.038;11.684;2022-08-02T12:36:17;28.60;44.50
7296;DHT22;40758;54.038;11.684;2022-08-02T12:38:54;29.10;37.30
7296;DHT22;40758;54.038;11.684;2022-08-02T12:41:25;28.60;38.40
7296;DHT22;40758;54.038;11.684;2022-08-02T12:43:59;28.20;35.50
7296;DHT22;40758;54.038;11.684;2022-08-02T12:46:29;28.30;39.40
7296;DHT22;40758;54.038;11.684;2022-08-02T12:49:15;28.40;36.70
7296;DHT22;40758;54.038;11.684;2022-08-02T12:51:47;28.80;40.10
7296;DHT22;40758;54.038;11.684;2022-08-02T12:54:28;28.90;35.40
7296;DHT22;40758;54.038;11.684;2022-08-02T12:57:09;28.30;35.40
7296;DHT22;40758;54.038;11.684;2022-08-02T12:59:40;27.20;36.50
7296;DHT22;40758;54.038;11.684;2022-08-02T13:02:17;26.90;39.60
7296;DHT22;40758;54.038;11.684;2022-08-02T13:04:49;27.20;39.80
7296;DHT22;40758;54.038;11.684;2022-08-02T13:07:18;27.50;37.50
7296;DHT22;40758;54.038;11.684;2022-08-02T13:09:49;28.00;41.20
7296;DHT22;40758;54.038;11.684;2022-08-02T13:12:30;27.80;37.50
7296;DHT22;40758;54.038;11.684;2022-08-02T13:15:01;28.20;38.50
7296;DHT22;40758;54.038;11.684;2022-08-02T13:17:38;28.80;39.00
7296;DHT22;40758;54.038;11.684;2022-08-02T13:20:10;29.80;39.40
7296;DHT22;40758;54.038;11.684;2022-08-02T13:22:43;29.40;36.70
7296;DHT22;40758;54.038;11.684;2022-08-02T13:25:20;28.70;38.70
7296;DHT22;40758;54.038;11.684;2022-08-02T13:27:50;28.20;38.60
7296;DHT22;40758;54.038;11.684;2022-08-02T13:30:20;27.60;39.40
7296;DHT22;40758;54.038;11.684;2022-08-02T13:32:49;27.40;43.00
7296;DHT22;40758;54.038;11.684;2022-08-02T13:35:18;27.70;42.80
7296;DHT22;40758;54.038;11.684;2022-08-02T13:37:47;28.10;39.50
7296;DHT22;40758;54.038;11.684;2022-08-02T13:40:17;28.00;39.80
7296;DHT22;40758;54.038;11.684;2022-08-02T13:42:49;28.30;41.30
7296;DHT22;40758;54.038;11.684;2022-08-02T13:45:18;28.10;40.30
7296;DHT22;40758;54.038;11.684;2022-08-02T13:47:51;28.30;41.00
7296;DHT22;40758;54.038;11.684;2022-08-02T13:50:31;28.50;41.30
7296;DHT22;40758;54.038;11.684;2022-08-02T13:55:59;29.30;39.60
7296;DHT22;40758;54.038;11.684;2022-08-02T13:58:29;29.70;38.80
7296;DHT22;40758;54.038;11.684;2022-08-02T14:01:02;29.00;39.20
7296;DHT22;40758;54.038;11.684;2022-08-02T14:03:31;28.20;40.60
7296;DHT22;40758;54.038;11.684;2022-08-02T14:06:21;28.10;43.10
7296;DHT22;40758;54.038;11.684;2022-08-02T14:08:51;28.60;41.30
7296;DHT22;40758;54.038;11.684;2022-08-02T14:15:44;29.30;41.50
7296;DHT22;40758;54.038;11.684;2022-08-02T14:18:14;28.60;41.20
7296;DHT22;40758;54.038;11.684;2022-08-02T14:20:45;28.80;41.50
7296;DHT22;40758;54.038;11.684;2022-08-02T14:23:15;28.70;40.90
7296;DHT22;40758;54.038;11.684;2022-08-02T14:26:05;28.50;40.00
7296;DHT22;40758;54.038;11.684;2022-08-02T14:28:53;28.70;42.10
7296;DHT22;40758;54.038;11.684;2022-08-02T14:31:23;28.80;41.70
7296;DHT22;40758;54.038;11.684;2022-08-02T14:33:53;28.90;40.80
7296;DHT22;40758;54.038;11.684;2022-08-02T14:36:25;28.50;42.50
7296;DHT22;40758;54.038;11.684;2022-08-02T14:38:55;28.20;44.00
7296;DHT22;40758;54.038;11.684;2022-08-02T14:41:25;28.50;42.80
7296;DHT22;40758;54.038;11.684;2022-08-02T14:43:54;28.60;43.00
7296;DHT22;40758;54.038;11.684;2022-08-02T14:46:37;28.50;44.50
7296;DHT22;40758;54.038;11.684;2022-08-02T14:49:09;28.40;43.10
7296;DHT22;40758;54.038;11.684;2022-08-02T14:51:50;28.90;42.80
7296;DHT22;40758;54.038;11.684;2022-08-02T14:54:20;28.70;42.70
7296;DHT22;40758;54.038;11.684;2022-08-02T14:56:57;28.50;43.00
7296;DHT22;40758;54.038;11.684;2022-08-02T14:59:27;28.10;45.00
7296;DHT22;40758;54.038;11.684;2022-08-02T15:01:59;27.60;43.80
7296;DHT22;40758;54.038;11.684;2022-08-02T15:04:28;27.30;46.60
7296;DHT22;40758;54.038;11.684;2022-08-02T15:07:06;27.20;45.30
7296;DHT22;40758;54.038;11.684;2022-08-02T15:09:36;27.00;46.80
7296;DHT22;40758;54.038;11.684;2022-08-02T15:12:07;26.90;48.60
7296;DHT22;40758;54.038;11.684;2022-08-02T15:14:37;27.10;47.60
7296;DHT22;40758;54.038;11.684;2022-08-02T15:17:09;27.20;49.00
7296;DHT22;40758;54.038;11.684;2022-08-02T15:19:38;27.50;48.80
7296;DHT22;40758;54.038;11.684;2022-08-02T15:22:26;27.70;48.90
7296;DHT22;40758;54.038;11.684;2022-08-02T15:24:56;27.70;46.90
7296;DHT22;40758;54.038;11.684;2022-08-02T15:27:28;27.30;47.00
7296;DHT22;40758;54.038;11.684;2022-08-02T15:29:57;26.70;47.40
7296;DHT22;40758;54.038;11.684;2022-08-02T15:32:31;26.30;49.10
7296;DHT22;40758;54.038;11.684;2022-08-02T15:35:04;25.90;50.20
7296;DHT22;40758;54.038;11.684;2022-08-02T15:37:34;25.80;51.50
7296;DHT22;40758;54.038;11.684;2022-08-02T15:40:08;25.80;52.10
7296;DHT22;40758;54.038;11.684;2022-08-02T15:42:39;25.70;53.70
7296;DHT22;40758;54.038;11.684;2022-08-02T15:45:13;25.60;52.40
7296;DHT22;40758;54.038;11.684;2022-08-02T15:47:44;25.50;53.50
7296;DHT22;40758;54.038;11.684;2022-08-02T15:50:16;25.70;54.20
7296;DHT22;40758;54.038;11.684;2022-08-02T15:52:45;25.90;54.70
7296;DHT22;40758;54.038;11.684;2022-08-02T15:55:14;26.10;54.70
7296;DHT22;40758;54.038;11.684;2022-08-02T15:57:46;25.90;54.50
7296;DHT22;40758;54.038;11.684;2022-08-02T16:00:16;25.50;55.10
7296;DHT22;40758;54.038;11.684;2022-08-02T16:02:47;25.30;56.10
7296;DHT22;40758;54.038;11.684;2022-08-02T16:05:16;25.20;58.20
7296;DHT22;40758;54.038;11.684;2022-08-02T16:07:46;25.20;57.00
7296;DHT22;40758;54.038;11.684;2022-08-02T16:10:16;25.20;58.70
7296;DHT22;40758;54.038;11.684;2022-08-02T16:12:47;25.30;61.30
7296;DHT22;40758;54.038;11.684;2022-08-02T16:15:16;25.30;61.60
7296;DHT22;40758;54.038;11.684;2022-08-02T16:17:46;25.10;61.60
7296;DHT22;40758;54.038;11.684;2022-08-02T16:20:20;25.00;63.30
7296;DHT22;40758;54.038;11.684;2022-08-02T16:22:50;25.00;64.40
7296;DHT22;40758;54.038;11.684;2022-08-02T16:25:19;25.00;66.00